Time;durP1;ratioP1;P1;durP2;ratioP2;P2;SDS_P1;SDS_P2;PMS_P1;PMS_P2;Temp;Humidity;BMP_temperature;BMP_pressure;BME280_temperature;BME280_humidity;BME280_pressure;Samples;Min_cycle;Max_cycle;Signal;HPM_P1;HPM_P2
2023/06/15 15:27:52;;;;;;;53.67;8.43;;;;;;;;;;5072021;27;20405;-59
2023/06/15 15:30:17;;;;;;;33.90;6.30;;;;;;;;;;5078012;27;20409;-56
2023/06/15 15:32:43;;;;;;;50.53;8.40;;;;;;;;;;5084550;28;20335;-56
2023/06/15 15:35:08;;;;;;;60.55;9.15;;;;;;;;;;5083196;28;20027;-59
2023/06/15 15:37:33;;;;;;;78.85;9.95;;;;;;;;;;5084023;28;20012;-59
2023/06/15 15:39:58;;;;;;;36.67;6.63;;;;;;;;;;5086675;28;20241;-58
2023/06/15 15:42:24;;;;;;;45.30;7.37;;;;;;;;;;5085021;27;20032;-57
2023/06/15 15:44:49;;;;;;;46.27;7.57;;;;;;;;;;5081402;28;20276;-56
2023/06/15 15:47:14;;;;;;;44.25;7.47;;;;;;;;;;5084064;28;20413;-57
2023/06/15 15:49:39;;;;;;;85.63;11.87;;;;;;;;;;5083339;28;20492;-57
2023/06/15 15:52:05;;;;;;;37.63;7.18;;;;;;;;;;5069613;27;20040;-58
2023/06/15 15:54:30;;;;;;;70.60;10.43;;;;;;;;;;5063195;28;20024;-59
2023/06/15 15:56:55;;;;;;;39.60;6.87;;;;;;;;;;5063592;28;20037;-56
2023/06/15 15:59:21;;;;;;;39.63;6.67;;;;;;;;;;5066670;28;20639;-56
2023/06/15 16:01:47;;;;;;;31.17;6.13;;;;;;;;;;5065453;28;20041;-57
2023/06/15 16:04:12;;;;;;;38.78;6.85;;;;;;;;;;5070254;28;20059;-56
2023/06/15 16:06:38;;;;;;;61.20;8.80;;;;;;;;;;5066673;28;20115;-58
2023/06/15 16:09:03;;;;;;;45.17;7.13;;;;;;;;;;5070438;28;20047;-56
2023/06/15 16:11:28;;;;;;;50.88;7.90;;;;;;;;;;5068466;28;20538;-56
2023/06/15 16:13:54;;;;;;;51.50;8.07;;;;;;;;;;5069897;28;20020;-55
2023/06/15 16:16:19;;;;;;;37.90;6.38;;;;;;;;;;5068601;28;20376;-59
2023/06/15 16:18:44;;;;;;;72.63;10.10;;;;;;;;;;5064420;28;20039;-57
2023/06/15 16:21:09;;;;;;;56.33;7.75;;;;;;;;;;5066822;28;20270;-57
2023/06/15 16:23:35;;;;;;;72.38;9.32;;;;;;;;;;5067933;28;20056;-57
2023/06/15 16:26:00;;;;;;;55.97;8.10;;;;;;;;;;5074427;28;20874;-56
2023/06/15 16:28:25;;;;;;;47.42;7.55;;;;;;;;;;5084427;28;20401;-58
2023/06/15 16:30:52;;;;;;;36.40;6.03;;;;;;;;;;5079567;28;20081;-56
2023/06/15 16:33:17;;;;;;;57.15;8.15;;;;;;;;;;5068852;28;20395;-58
2023/06/15 16:35:42;;;;;;;80.07;10.77;;;;;;;;;;5067178;28;20373;-57
2023/06/15 16:38:08;;;;;;;41.03;6.97;;;;;;;;;;5060261;28;20012;-59
2023/06/15 16:40:33;;;;;;;66.30;8.90;;;;;;;;;;5053257;28;20260;-58
2023/06/15 16:42:58;;;;;;;34.70;6.27;;;;;;;;;;5055152;28;20795;-59
2023/06/15 16:45:24;;;;;;;40.80;6.77;;;;;;;;;;5054572;28;20060;-55
2023/06/15 16:47:49;;;;;;;44.20;7.13;;;;;;;;;;5054527;28;20047;-55
2023/06/15 16:50:14;;;;;;;32.22;5.82;;;;;;;;;;5054063;28;20138;-57
2023/06/15 16:52:40;;;;;;;69.03;9.27;;;;;;;;;;5054558;28;20016;-57
2023/06/15 16:55:05;;;;;;;44.07;6.90;;;;;;;;;;5056866;28;21118;-57
2023/06/15 16:57:30;;;;;;;49.25;7.70;;;;;;;;;;5049384;28;20390;-57
2023/06/15 16:59:56;;;;;;;41.23;6.93;;;;;;;;;;5051152;28;20476;-57
2023/06/15 17:02:21;;;;;;;31.80;5.95;;;;;;;;;;5053997;28;20667;-56
2023/06/15 17:04:47;;;;;;;66.25;8.95;;;;;;;;;;5053090;28;20071;-55
2023/06/15 17:07:12;;;;;;;37.15;6.55;;;;;;;;;;5049809;28;20377;-56
2023/06/15 17:09:45;;;;;;;71.60;9.83;;;;;;;;;;5048284;28;20029;-56
2023/06/15 17:12:11;;;;;;;49.55;7.75;;;;;;;;;;5050745;28;20287;-55
2023/06/15 17:14:36;;;;;;;89.13;11.25;;;;;;;;;;5049566;28;20020;-57
2023/06/15 17:17:01;;;;;;;50.08;8.15;;;;;;;;;;5049661;28;20058;-57
2023/06/15 17:19:27;;;;;;;50.42;7.57;;;;;;;;;;5048103;28;20036;-55
2023/06/15 17:21:53;;;;;;;44.20;6.97;;;;;;;;;;5050062;28;20040;-54
2023/06/15 17:24:20;;;;;;;46.28;6.88;;;;;;;;;;5048781;28;20279;-58
2023/06/15 17:26:45;;;;;;;76.70;9.65;;;;;;;;;;5048697;28;20792;-56
2023/06/15 17:29:11;;;;;;;44.27;7.57;;;;;;;;;;5049303;28;20024;-58
2023/06/15 17:31:36;;;;;;;92.75;11.73;;;;;;;;;;5050584;28;20267;-57
2023/06/15 17:34:02;;;;;;;46.08;6.85;;;;;;;;;;5055051;28;20462;-56
2023/06/15 17:36:27;;;;;;;45.08;7.05;;;;;;;;;;5051129;28;20426;-57
2023/06/15 17:38:53;;;;;;;50.97;7.13;;;;;;;;;;5049599;28;20067;-59
2023/06/15 17:41:18;;;;;;;44.20;7.00;;;;;;;;;;5050311;28;20328;-57
2023/06/15 17:43:44;;;;;;;84.53;11.45;;;;;;;;;;5047556;28;20098;-60
2023/06/15 17:46:10;;;;;;;73.03;9.18;;;;;;;;;;5050843;28;20907;-59
2023/06/15 17:48:36;;;;;;;68.15;9.48;;;;;;;;;;5054436;28;20024;-56
2023/06/15 17:51:02;;;;;;;48.08;6.63;;;;;;;;;;5053387;28;20055;-58
2023/06/15 17:53:27;;;;;;;56.50;7.90;;;;;;;;;;5054001;28;20143;-58
2023/06/15 17:55:57;;;;;;;54.35;8.27;;;;;;;;;;5048145;28;20064;-56
2023/06/15 17:58:23;;;;;;;32.55;5.68;;;;;;;;;;5049040;28;20043;-59
2023/06/15 18:00:49;;;;;;;79.47;9.98;;;;;;;;;;5047024;28;20032;-55
2023/06/15 18:03:14;;;;;;;51.38;7.55;;;;;;;;;;5047789;28;20038;-56
2023/06/15 18:05:40;;;;;;;85.13;10.63;;;;;;;;;;5048813;28;20553;-55
2023/06/15 18:08:05;;;;;;;45.95;8.07;;;;;;;;;;5052016;28;20371;-55
2023/06/15 18:10:31;;;;;;;58.67;7.93;;;;;;;;;;5051638;28;20029;-56
2023/06/15 18:12:56;;;;;;;47.22;7.10;;;;;;;;;;5052648;28;20313;-54
2023/06/15 18:15:22;;;;;;;42.78;7.18;;;;;;;;;;5052634;28;20141;-56
2023/06/15 18:17:47;;;;;;;81.53;11.20;;;;;;;;;;5051375;28;20016;-57
2023/06/15 18:20:12;;;;;;;44.90;6.93;;;;;;;;;;5052604;28;20498;-57
2023/06/15 18:22:37;;;;;;;61.97;9.37;;;;;;;;;;5049103;28;20251;-58
2023/06/15 18:25:03;;;;;;;53.75;7.70;;;;;;;;;;5048615;28;20020;-55
2023/06/15 18:27:28;;;;;;;51.90;7.88;;;;;;;;;;5049390;28;20095;-56
2023/06/15 18:29:53;;;;;;;44.92;6.88;;;;;;;;;;5046844;28;21342;-53
2023/06/15 18:32:19;;;;;;;43.43;7.00;;;;;;;;;;5052294;28;20045;-59
2023/06/15 18:34:48;;;;;;;92.93;11.27;;;;;;;;;;5050845;28;20496;-57
2023/06/15 18:37:13;;;;;;;46.90;6.82;;;;;;;;;;5048492;28;20309;-57
2023/06/15 18:39:38;;;;;;;64.90;8.77;;;;;;;;;;5044704;28;20025;-59
2023/06/15 18:42:03;;;;;;;44.27;6.80;;;;;;;;;;5052664;28;20308;-55
2023/06/15 18:44:30;;;;;;;46.03;6.70;;;;;;;;;;5051856;28;20269;-57
2023/06/15 18:46:55;;;;;;;48.08;7.25;;;;;;;;;;5063947;28;20470;-56
2023/06/15 18:49:20;;;;;;;33.78;6.05;;;;;;;;;;5069633;28;20028;-57
2023/06/15 18:51:46;;;;;;;78.22;10.23;;;;;;;;;;5065634;28;20032;-56
2023/06/15 18:54:11;;;;;;;53.40;7.60;;;;;;;;;;5068390;28;20037;-55
2023/06/15 18:56:36;;;;;;;42.47;6.73;;;;;;;;;;5066243;28;20372;-55
2023/06/15 18:59:01;;;;;;;40.20;6.57;;;;;;;;;;5067281;28;20313;-56
2023/06/15 19:01:27;;;;;;;56.43;7.97;;;;;;;;;;5069394;28;20044;-57
2023/06/15 19:03:52;;;;;;;77.88;10.38;;;;;;;;;;5068122;28;20160;-58
2023/06/15 19:06:17;;;;;;;55.13;7.43;;;;;;;;;;5068261;28;20572;-57
2023/06/15 19:08:42;;;;;;;98.00;12.00;;;;;;;;;;5068367;28;21853;-56
2023/06/15 19:11:08;;;;;;;56.70;7.90;;;;;;;;;;5069964;28;20510;-55
2023/06/15 19:13:33;;;;;;;55.83;7.75;;;;;;;;;;5069738;28;20254;-58
2023/06/15 19:15:58;;;;;;;70.60;9.03;;;;;;;;;;5066229;28;20039;-57
2023/06/15 19:18:24;;;;;;;50.92;7.35;;;;;;;;;;5070232;28;20022;-54
2023/06/15 19:20:50;;;;;;;88.20;11.10;;;;;;;;;;5069227;28;20330;-59
2023/06/15 19:23:15;;;;;;;70.82;8.70;;;;;;;;;;5069885;28;20544;-55
2023/06/15 19:25:41;;;;;;;74.22;9.70;;;;;;;;;;5066947;28;20113;-56
2023/06/15 19:28:06;;;;;;;47.65;6.75;;;;;;;;;;5068044;28;20048;-58
2023/06/15 19:30:31;;;;;;;66.00;8.17;;;;;;;;;;5065083;28;20052;-56
2023/06/15 19:32:57;;;;;;;97.65;11.48;;;;;;;;;;5047168;28;20513;-58
2023/06/15 19:35:22;;;;;;;55.57;7.53;;;;;;;;;;5051297;28;20429;-57
2023/06/15 19:37:47;;;;;;;112.40;12.33;;;;;;;;;;5068918;28;20258;-57
2023/06/15 19:40:13;;;;;;;61.42;8.57;;;;;;;;;;5071209;28;20274;-58
2023/06/15 19:42:41;;;;;;;65.38;8.70;;;;;;;;;;5052025;28;20505;-56
2023/06/15 19:45:06;;;;;;;53.78;7.50;;;;;;;;;;5049674;28;20438;-57
2023/06/15 19:47:32;;;;;;;44.13;7.38;;;;;;;;;;5050419;28;20402;-57
2023/06/15 19:49:57;;;;;;;80.75;10.80;;;;;;;;;;5050810;28;20032;-57
2023/06/15 19:52:22;;;;;;;42.63;6.90;;;;;;;;;;5066012;28;20029;-55
2023/06/15 19:54:47;;;;;;;84.23;10.17;;;;;;;;;;5066755;28;20069;-58
2023/06/15 19:57:15;;;;;;;48.07;7.40;;;;;;;;;;5066213;28;20294;-57
2023/06/15 19:59:42;;;;;;;52.78;7.60;;;;;;;;;;5065209;28;20322;-54
2023/06/15 20:02:08;;;;;;;45.45;7.18;;;;;;;;;;5069178;28;20030;-54
2023/06/15 20:04:33;;;;;;;52.53;7.45;;;;;;;;;;5067776;28;20016;-57
2023/06/15 20:06:58;;;;;;;76.17;9.97;;;;;;;;;;5065200;28;20028;-57
2023/06/15 20:09:24;;;;;;;37.63;6.43;;;;;;;;;;5067922;28;20259;-56
2023/06/15 20:11:50;;;;;;;66.43;8.77;;;;;;;;;;5051827;28;20029;-56
2023/06/15 20:14:15;;;;;;;36.38;6.85;;;;;;;;;;5050174;28;20024;-57
2023/06/15 20:16:41;;;;;;;46.15;7.85;;;;;;;;;;5062962;28;20032;-57
2023/06/15 20:19:06;;;;;;;46.97;7.60;;;;;;;;;;5070972;28;20074;-59
2023/06/15 20:21:31;;;;;;;54.97;7.85;;;;;;;;;;5072186;28;20065;-56
2023/06/15 20:23:56;;;;;;;66.40;9.03;;;;;;;;;;5069559;28;20101;-56
2023/06/15 20:26:23;;;;;;;36.25;6.80;;;;;;;;;;5061302;28;20282;-58
2023/06/15 20:28:48;;;;;;;66.43;8.88;;;;;;;;;;5053934;28;20402;-57
2023/06/15 20:31:14;;;;;;;43.03;7.23;;;;;;;;;;5054830;28;20043;-58
2023/06/15 20:33:43;;;;;;;50.72;7.72;;;;;;;;;;5049265;28;20251;-57
2023/06/15 20:36:08;;;;;;;65.78;9.23;;;;;;;;;;5058857;28;20598;-58
2023/06/15 20:38:34;;;;;;;45.07;7.40;;;;;;;;;;5076070;28;20469;-57
2023/06/15 20:41:00;;;;;;;78.40;10.50;;;;;;;;;;5073424;28;20331;-56
2023/06/15 20:43:27;;;;;;;53.63;8.07;;;;;;;;;;5074142;28;20024;-56
2023/06/15 20:45:52;;;;;;;82.78;10.73;;;;;;;;;;5071828;28;20043;-56
2023/06/15 20:48:18;;;;;;;29.80;6.45;;;;;;;;;;5071652;28;20024;-58
2023/06/15 20:50:43;;;;;;;45.28;7.63;;;;;;;;;;5067924;28;20041;-55
2023/06/15 20:53:08;;;;;;;36.57;6.73;;;;;;;;;;5053329;28;20012;-57
2023/06/15 20:55:34;;;;;;;46.03;7.20;;;;;;;;;;5050950;28;20314;-57
2023/06/15 20:58:00;;;;;;;78.47;10.57;;;;;;;;;;5054601;28;20028;-58
2023/06/15 21:00:25;;;;;;;32.85;6.82;;;;;;;;;;5057223;28;20048;-58
2023/06/15 21:02:51;;;;;;;84.57;11.23;;;;;;;;;;5071466;28;20038;-56
2023/06/15 21:05:16;;;;;;;44.05;7.03;;;;;;;;;;5072732;28;20042;-58
2023/06/15 21:07:41;;;;;;;43.37;7.17;;;;;;;;;;5070809;28;20449;-57
2023/06/15 21:10:08;;;;;;;49.73;8.17;;;;;;;;;;5070161;28;20747;-56
2023/06/15 21:12:34;;;;;;;53.35;8.18;;;;;;;;;;5054656;28;20320;-58
2023/06/15 21:14:59;;;;;;;86.55;10.88;;;;;;;;;;5053148;28;20025;-57
2023/06/15 21:17:24;;;;;;;55.33;7.88;;;;;;;;;;5054021;28;20044;-57
2023/06/15 21:19:50;;;;;;;64.97;8.57;;;;;;;;;;5053716;28;20405;-57
2023/06/15 21:22:15;;;;;;;37.17;7.13;;;;;;;;;;5051025;28;20484;-56
2023/06/15 21:24:40;;;;;;;51.53;7.93;;;;;;;;;;5048343;28;20403;-57
2023/06/15 21:27:05;;;;;;;46.30;7.43;;;;;;;;;;5064486;28;20678;-56
2023/06/15 21:29:31;;;;;;;50.55;7.60;;;;;;;;;;5071588;28;20020;-59
2023/06/15 21:31:56;;;;;;;95.20;11.85;;;;;;;;;;5054744;28;20175;-58
2023/06/15 21:34:21;;;;;;;39.83;7.33;;;;;;;;;;5055427;28;20020;-55
2023/06/15 21:36:47;;;;;;;38.70;6.93;;;;;;;;;;5054431;28;20803;-55
2023/06/15 21:39:13;;;;;;;48.20;7.70;;;;;;;;;;5060901;28;20740;-57
2023/06/15 21:41:39;;;;;;;46.88;8.23;;;;;;;;;;5058755;28;20830;-57
2023/06/15 21:44:05;;;;;;;91.55;11.68;;;;;;;;;;5057203;28;20015;-55
2023/06/15 21:46:32;;;;;;;56.28;8.50;;;;;;;;;;5054527;28;20106;-57
2023/06/15 21:48:57;;;;;;;77.00;10.98;;;;;;;;;;5049887;28;20469;-55
2023/06/15 21:51:23;;;;;;;44.00;7.75;;;;;;;;;;5049477;28;20028;-56
2023/06/15 21:53:48;;;;;;;54.85;7.90;;;;;;;;;;5047431;28;20099;-55
2023/06/15 21:56:14;;;;;;;49.67;7.83;;;;;;;;;;5050866;28;20449;-56
2023/06/15 21:58:41;;;;;;;46.20;8.07;;;;;;;;;;5054823;28;20258;-54
2023/06/15 22:01:06;;;;;;;100.13;11.75;;;;;;;;;;5050825;28;20044;-54
2023/06/15 22:03:31;;;;;;;67.50;9.40;;;;;;;;;;5048749;28;20024;-56
2023/06/15 22:05:57;;;;;;;107.80;12.60;;;;;;;;;;5045945;28;20043;-55
2023/06/15 22:08:22;;;;;;;49.40;8.37;;;;;;;;;;5049508;28;20854;-58
2023/06/15 22:10:47;;;;;;;44.47;7.97;;;;;;;;;;5049668;28;20353;-55
2023/06/15 22:13:17;;;;;;;43.33;7.72;;;;;;;;;;5048171;28;20302;-57
2023/06/15 22:15:43;;;;;;;57.78;9.15;;;;;;;;;;5049107;28;20033;-55
2023/06/15 22:18:08;;;;;;;58.08;8.95;;;;;;;;;;5048989;28;21089;-56
2023/06/15 22:20:33;;;;;;;45.10;8.07;;;;;;;;;;5048718;28;20048;-55
2023/06/15 22:22:58;;;;;;;101.88;12.68;;;;;;;;;;5047093;28;20251;-56
2023/06/15 22:25:24;;;;;;;48.37;8.37;;;;;;;;;;5051950;28;20151;-57
2023/06/15 22:27:49;;;;;;;54.70;9.18;;;;;;;;;;5067595;28;20286;-54
2023/06/15 22:30:15;;;;;;;53.63;8.90;;;;;;;;;;5067890;28;20077;-59
2023/06/15 22:32:40;;;;;;;78.22;10.82;;;;;;;;;;5052386;28;20473;-58
2023/06/15 22:35:05;;;;;;;103.88;13.43;;;;;;;;;;5046755;28;20058;-56
2023/06/15 22:37:31;;;;;;;84.93;11.40;;;;;;;;;;5063725;28;20198;-56
2023/06/15 22:39:56;;;;;;;96.53;13.10;;;;;;;;;;5062233;28;20073;-57
2023/06/15 22:42:21;;;;;;;47.10;8.60;;;;;;;;;;5046535;28;20609;-56
2023/06/15 22:44:47;;;;;;;73.43;10.60;;;;;;;;;;5044381;28;20182;-55
2023/06/15 22:47:17;;;;;;;67.07;9.88;;;;;;;;;;5046845;28;20028;-57
2023/06/15 22:49:42;;;;;;;62.67;9.60;;;;;;;;;;5048795;28;20117;-56
2023/06/15 22:52:10;;;;;;;105.65;13.43;;;;;;;;;;5042168;28;20195;-56
2023/06/15 22:54:36;;;;;;;64.90;9.88;;;;;;;;;;5043956;28;20033;-59
2023/06/15 22:57:01;;;;;;;107.82;13.13;;;;;;;;;;5042851;28;20032;-56
2023/06/15 22:59:26;;;;;;;62.47;9.68;;;;;;;;;;5049289;28;20077;-60
2023/06/15 23:01:52;;;;;;;52.37;9.30;;;;;;;;;;5042667;28;20059;-60
2023/06/15 23:04:17;;;;;;;48.85;8.75;;;;;;;;;;5042763;28;20263;-60
2023/06/15 23:06:43;;;;;;;73.17;10.03;;;;;;;;;;5039593;28;20040;-59
2023/06/15 23:09:08;;;;;;;109.20;13.63;;;;;;;;;;5043662;28;20255;-59
